Time;durP1;ratioP1;P1;durP2;ratioP2;P2;SDS_P1;SDS_P2;PMS_P1;PMS_P2;Temp;Humidity;BMP_temperature;BMP_pressure;BME280_temperature;BME280_humidity;BME280_pressure;Samples;Min_cycle;Max_cycle;Signal;HPM_P1;HPM_P2
2022/09/11 00:01:00;;;;;;;47.95;35.38;;;;;;;13.63;100.00;164129.94;4993106;28;20750;-62
2022/09/11 00:03:26;;;;;;;58.03;37.63;;;;;;;13.67;100.00;164139.41;4992690;28;20092;-62
2022/09/11 00:05:52;;;;;;;63.00;40.13;;;;;;;13.66;100.00;164135.34;4991479;28;20133;-63
2022/09/11 00:08:20;;;;;;;53.63;34.42;;;;;;;13.73;100.00;164154.28;4992754;28;20030;-62
2022/09/11 00:10:47;;;;;;;71.53;37.90;;;;;;;13.73;100.00;164154.28;4991139;28;20042;-61
2022/09/11 00:13:20;;;;;;;66.60;38.15;;;;;;;13.69;100.00;164144.81;4992843;28;20390;-61
2022/09/11 00:15:47;;;;;;;67.20;43.80;;;;;;;13.66;100.00;164135.34;4991643;28;20623;-61
2022/09/11 00:18:14;;;;;;;51.17;33.47;;;;;;;13.61;100.00;164124.50;4992167;28;20089;-60
2022/09/11 00:20:48;;;;;;;103.15;41.10;;;;;;;13.58;100.00;164116.41;4991494;28;20061;-60
2022/09/11 00:23:16;;;;;;;66.80;41.15;;;;;;;13.53;100.00;164101.53;4992456;28;20026;-60
2022/09/11 00:25:41;;;;;;;60.05;39.35;;;;;;;13.49;100.00;164092.06;4991102;28;20034;-59
2022/09/11 00:28:12;;;;;;;57.20;37.67;;;;;;;13.40;100.00;164067.72;4992533;28;20410;-59
2022/09/11 00:30:37;;;;;;;58.00;41.55;;;;;;;13.40;100.00;164069.09;4991023;28;20054;-61
2022/09/11 00:33:03;;;;;;;56.92;43.08;;;;;;;13.34;100.00;164052.78;4991938;28;20409;-61
2022/09/11 00:35:29;;;;;;;55.83;40.75;;;;;;;13.29;100.00;164040.59;4991349;28;20043;-62
2022/09/11 00:37:54;;;;;;;71.30;42.78;;;;;;;13.28;100.00;164037.94;4991730;28;20034;-62
2022/09/11 00:40:20;;;;;;;68.45;43.30;;;;;;;13.26;100.00;164032.53;4990793;28;20245;-61
2022/09/11 00:42:52;;;;;;;76.50;50.50;;;;;;;13.21;100.00;164019.03;4992626;28;20029;-61
2022/09/11 00:45:24;;;;;;;65.80;44.58;;;;;;;13.19;100.00;164013.59;4991066;28;20617;-61
2022/09/11 00:47:51;;;;;;;71.03;45.17;;;;;;;13.14;100.00;164001.41;4992058;28;20493;-61
2022/09/11 00:50:22;;;;;;;61.85;41.08;;;;;;;13.08;100.00;163985.22;4990801;28;20100;-61
2022/09/11 00:52:55;;;;;;;60.75;39.08;;;;;;;13.09;100.00;163986.53;4992225;28;20030;-61
2022/09/11 00:55:25;;;;;;;61.60;39.28;;;;;;;13.06;100.00;163978.47;4990643;28;20049;-60
2022/09/11 00:57:55;;;;;;;45.30;31.23;;;;;;;13.05;100.00;163975.75;4992059;28;20489;-62
2022/09/11 01:00:21;;;;;;;57.72;35.22;;;;;;;13.06;100.00;163978.47;4990275;28;20043;-62
2022/09/11 01:02:50;;;;;;;50.70;34.50;;;;;;;13.14;100.00;164000.09;4992019;28;20073;-61
2022/09/11 01:05:16;;;;;;;52.67;31.73;;;;;;;13.13;100.00;163998.72;4990209;28;20076;-61
2022/09/11 01:07:44;;;;;;;61.10;39.15;;;;;;;13.05;100.00;163977.06;4991708;28;20038;-61
2022/09/11 01:10:11;;;;;;;;;;;;;;;13.13;100.00;163997.38;4990425;28;20038;-61
2022/09/11 01:13:13;;;;;;;55.85;36.38;;;;;;;13.12;100.00;163994.66;4991860;28;20373;-60
2022/09/11 01:16:13;;;;;;;62.72;40.90;;;;;;;13.07;100.00;163982.50;4990478;28;20038;-61
2022/09/11 01:18:50;;;;;;;68.15;42.63;;;;;;;13.07;100.00;163981.16;4990237;28;20034;-61
2022/09/11 01:21:44;;;;;;;89.72;51.65;;;;;;;13.30;100.00;164042.00;4991559;28;20018;-61
2022/09/11 01:24:26;;;;;;;80.90;48.63;;;;;;;13.43;100.00;164077.19;4990010;28;20046;-62
2022/09/11 01:27:07;;;;;;;87.90;49.25;;;;;;;13.50;100.00;164094.78;4991757;28;20469;-61
2022/09/11 01:29:52;;;;;;;80.63;44.67;;;;;;;13.47;100.00;164088.03;4990233;28;20506;-62
2022/09/11 01:32:34;;;;;;;83.88;48.22;;;;;;;13.52;100.00;164098.81;4991666;28;20034;-61
2022/09/11 01:35:18;;;;;;;87.18;49.85;;;;;;;13.50;100.00;164094.78;4989765;28;20065;-62
2022/09/11 01:37:56;;;;;;;81.93;52.25;;;;;;;13.49;100.00;164092.06;4991690;28;20022;-61
2022/09/11 01:40:29;;;;;;;91.72;54.00;;;;;;;13.61;100.00;164124.50;4990153;28;20125;-61
2022/09/11 01:43:05;;;;;;;106.63;60.55;;;;;;;13.78;100.00;164167.78;4991417;28;20474;-61
2022/09/11 01:45:32;;;;;;;110.10;59.45;;;;;;;13.75;100.00;164159.66;4989966;28;20165;-62
2022/09/11 01:47:59;;;;;;;104.72;56.70;;;;;;;13.83;100.00;164181.31;4990835;28;20073;-62
2022/09/11 01:50:27;;;;;;;97.53;54.58;;;;;;;13.85;100.00;164185.41;4989975;28;20038;-61
2022/09/11 01:52:58;;;;;;;97.65;55.05;;;;;;;13.89;100.00;163790.75;4990877;28;20038;-61
2022/09/11 01:55:30;;;;;;;100.25;55.05;;;;;;;13.89;100.00;163567.16;4989949;28;20065;-61
2022/09/11 01:58:02;;;;;;;111.85;55.70;;;;;;;13.94;100.00;163286.31;4991462;28;20026;-61
2022/09/11 02:00:30;;;;;;;108.68;62.30;;;;;;;14.00;100.00;162899.91;4990140;28;20042;-60
2022/09/11 02:03:03;;;;;;;117.30;60.45;;;;;;;13.99;100.00;162747.28;4990894;28;20026;-60
2022/09/11 02:05:35;;;;;;;114.03;57.40;;;;;;;14.15;100.00;162695.72;4989678;28;20038;-60
2022/09/11 02:08:22;;;;;;;110.45;60.00;;;;;;;14.24;100.00;163736.63;4991508;28;20537;-61
2022/09/11 02:10:52;;;;;;;105.38;58.67;;;;;;;14.28;100.00;164299.00;4989338;28;20047;-60
2022/09/11 02:13:47;;;;;;;124.35;59.72;;;;;;;14.27;100.00;164297.63;4993405;28;20569;-61
2022/09/11 02:16:49;;;;;;;128.15;57.35;;;;;;;14.28;100.00;164300.34;4993279;28;20046;-60
2022/09/11 02:19:18;;;;;;;139.68;60.50;;;;;;;14.26;100.00;164294.91;4971901;28;20085;-60
2022/09/11 02:21:46;;;;;;;128.95;58.45;;;;;;;14.21;100.00;164281.41;4995086;28;20018;-60
2022/09/11 02:24:12;;;;;;;;;;;;;;;14.31;100.00;164307.09;4993800;28;20126;-60
2022/09/11 02:26:41;;;;;;;120.97;60.40;;;;;;;14.32;100.00;164308.47;4994903;28;20003;-60
2022/09/11 02:29:07;;;;;;;145.43;60.63;;;;;;;14.25;100.00;164292.25;4993162;28;20038;-60
2022/09/11 02:31:34;;;;;;;128.25;57.72;;;;;;;14.27;100.00;164297.63;4994424;28;20466;-61
2022/09/11 02:33:59;;;;;;;150.13;55.75;;;;;;;14.06;100.00;164242.19;4992873;28;20069;-61
2022/09/11 02:36:30;;;;;;;113.57;53.63;;;;;;;14.11;100.00;162368.47;4994765;28;20470;-60
2022/09/11 02:39:30;;;;;;;129.90;55.40;;;;;;;14.08;100.00;160550.41;4992589;28;20068;-60
2022/09/11 02:42:15;;;;;;;127.55;53.50;;;;;;;14.10;100.00;158826.88;4994552;28;20105;-61
2022/09/11 02:45:06;;;;;;;128.07;51.10;;;;;;;14.09;100.00;158288.81;4993548;28;20047;-61
2022/09/11 02:47:54;;;;;;;135.60;53.50;;;;;;;14.14;100.00;158378.22;4994152;28;20033;-61
2022/09/11 02:50:44;;;;;;;182.45;56.72;;;;;;;14.02;100.00;160018.41;4992705;28;20379;-60
2022/09/11 02:53:20;;;;;;;156.95;50.92;;;;;;;13.96;100.00;158784.53;4993958;28;20072;-62
2022/09/11 02:56:08;;;;;;;153.65;54.10;;;;;;;13.95;100.00;156757.59;4993130;28;20121;-62
2022/09/11 02:58:43;;;;;;;159.95;56.13;;;;;;;14.01;100.00;154641.59;4992687;28;20062;-62
2022/09/11 03:01:08;;;;;;;131.25;53.33;;;;;;;14.09;100.00;154661.94;4993685;28;20023;-62
2022/09/11 03:03:39;;;;;;;178.85;60.55;;;;;;;14.12;100.00;155734.03;4992688;28;20030;-62
2022/09/11 03:06:05;;;;;;;129.85;51.92;;;;;;;14.24;100.00;157184.84;4974805;28;20105;-62
2022/09/11 03:08:31;;;;;;;126.63;55.55;;;;;;;14.27;100.00;159362.50;4974486;28;20054;-62
2022/09/11 03:10:56;;;;;;;132.52;51.55;;;;;;;14.17;100.00;161112.75;4973032;28;20410;-62
2022/09/11 03:13:21;;;;;;;153.45;51.47;;;;;;;14.18;100.00;162345.53;4974885;28;20501;-62
2022/09/11 03:15:47;;;;;;;147.95;52.17;;;;;;;14.12;100.00;163109.81;4972963;28;20057;-63
2022/09/11 03:18:14;;;;;;;148.63;52.97;;;;;;;14.14;100.00;163413.88;4974516;28;20034;-62
2022/09/11 03:20:44;;;;;;;107.90;50.28;;;;;;;14.13;100.00;163440.25;4992149;28;20512;-63
2022/09/11 03:23:09;;;;;;;171.93;55.35;;;;;;;14.15;100.00;163567.88;4993309;28;20031;-63
2022/09/11 03:25:35;;;;;;;99.93;47.53;;;;;;;14.20;100.00;163453.53;4992557;28;20034;-63
2022/09/11 03:28:02;;;;;;;139.75;52.35;;;;;;;14.08;100.00;164237.91;4993666;28;20026;-63
2022/09/11 03:30:28;;;;;;;116.97;48.45;;;;;;;14.02;100.00;164230.03;4991696;28;20113;-61
2022/09/11 03:32:53;;;;;;;164.35;53.58;;;;;;;14.02;100.00;164134.13;4993149;28;20425;-62
2022/09/11 03:35:19;;;;;;;102.45;51.20;;;;;;;14.07;100.00;163601.88;4992323;28;20045;-62
2022/09/11 03:37:45;;;;;;;158.73;48.97;;;;;;;14.02;100.00;163399.56;4993610;28;20030;-62
2022/09/11 03:40:11;;;;;;;122.93;50.00;;;;;;;13.99;100.00;163194.31;4992136;28;20073;-62
2022/09/11 03:42:36;;;;;;;113.03;44.88;;;;;;;13.99;100.00;162908.31;4993439;28;20030;-62
2022/09/11 03:45:02;;;;;;;116.55;42.88;;;;;;;13.91;100.00;163439.28;4991597;28;20042;-62
2022/09/11 03:47:28;;;;;;;99.40;45.60;;;;;;;13.81;100.00;163837.19;4993532;28;20060;-61
2022/09/11 03:49:54;;;;;;;124.13;43.83;;;;;;;13.80;100.00;163703.97;4991787;28;20490;-62
2022/09/11 03:52:21;;;;;;;111.00;42.80;;;;;;;13.74;100.00;163721.06;4993433;28;20030;-61
2022/09/11 03:54:47;;;;;;;142.55;51.05;;;;;;;13.64;100.00;163263.84;4991747;28;20434;-61
2022/09/11 03:57:13;;;;;;;146.55;50.92;;;;;;;13.64;100.00;161780.69;4993013;28;20026;-60
2022/09/11 03:59:38;;;;;;;145.50;50.80;;;;;;;13.68;100.00;159970.31;4991848;28;20042;-60
2022/09/11 04:02:04;;;;;;;174.02;57.65;;;;;;;13.72;100.00;158161.81;4992370;28;20027;-60
2022/09/11 04:04:29;;;;;;;169.18;53.55;;;;;;;13.74;100.00;157059.50;4992051;28;20044;-60
2022/09/11 04:06:54;;;;;;;125.22;53.15;;;;;;;13.80;100.00;156009.41;4992854;28;20038;-60
2022/09/11 04:09:20;;;;;;;127.60;52.17;;;;;;;13.88;100.00;155320.47;4991452;28;20418;-61
2022/09/11 04:11:45;;;;;;;101.72;48.08;;;;;;;13.90;100.00;155324.28;4992724;28;20034;-61
2022/09/11 04:14:11;;;;;;;127.75;47.67;;;;;;;13.89;100.00;155677.72;4991291;28;20050;-61
2022/09/11 04:16:36;;;;;;;104.07;48.10;;;;;;;13.79;100.00;155652.13;4992563;28;20106;-61
2022/09/11 04:19:02;;;;;;;145.15;49.40;;;;;;;13.84;100.00;155663.66;4991229;28;20031;-61
2022/09/11 04:21:28;;;;;;;153.88;45.75;;;;;;;13.84;100.00;156019.66;4992791;28;20401;-61
2022/09/11 04:23:55;;;;;;;189.38;45.92;;;;;;;13.79;100.00;156716.31;4990908;28;20046;-62
2022/09/11 04:26:23;;;;;;;121.22;46.83;;;;;;;13.76;100.00;158449.47;4992701;28;20389;-61
2022/09/11 04:28:49;;;;;;;164.77;48.40;;;;;;;13.73;100.00;159986.28;4991501;28;20031;-61
2022/09/11 04:31:17;;;;;;;134.30;50.75;;;;;;;13.77;100.00;160013.44;4991540;28;20402;-61
2022/09/11 04:33:43;;;;;;;101.28;47.25;;;;;;;13.80;100.00;159505.44;4990755;28;20033;-61
2022/09/11 04:36:16;;;;;;;143.63;50.10;;;;;;;13.82;100.00;159426.16;4991667;28;20490;-61
2022/09/11 04:38:42;;;;;;;97.10;44.58;;;;;;;13.82;100.00;159499.56;4990915;28;20461;-61
2022/09/11 04:41:07;;;;;;;167.27;46.67;;;;;;;13.79;100.00;160527.66;4992061;28;20049;-61
2022/09/11 04:43:34;;;;;;;120.13;48.13;;;;;;;13.77;100.00;160923.34;4991931;28;20030;-64
2022/09/11 04:46:01;;;;;;;118.53;45.22;;;;;;;13.81;100.00;160448.44;4991014;28;20023;-62
2022/09/11 04:48:26;;;;;;;102.55;47.28;;;;;;;13.78;100.00;160113.16;4991473;28;20036;-62
2022/09/11 04:50:59;;;;;;;102.55;45.58;;;;;;;13.82;100.00;159290.25;4990521;28;20039;-63
2022/09/11 04:53:24;;;;;;;154.55;48.53;;;;;;;13.78;100.00;159658.25;4991491;28;20545;-62
2022/09/11 04:55:50;;;;;;;171.77;53.03;;;;;;;13.73;100.00;159758.84;4990790;28;20092;-62
2022/09/11 04:58:15;;;;;;;101.35;50.42;;;;;;;13.76;100.00;159755.63;4992240;28;20018;-62
2022/09/11 05:00:41;;;;;;;136.77;51.22;;;;;;;13.77;100.00;159353.31;4994000;28;20093;-62
2022/09/11 05:03:06;;;;;;;122.10;48.08;;;;;;;13.79;100.00;158540.50;4990538;28;20038;-63
2022/09/11 05:05:32;;;;;;;118.97;49.22;;;;;;;13.83;100.00;157588.75;4990842;28;20038;-62
2022/09/11 05:07:57;;;;;;;163.27;58.45;;;;;;;13.91;100.00;156747.25;4990006;28;20045;-59
2022/09/11 05:10:22;;;;;;;100.38;51.85;;;;;;;13.96;100.00;156879.34;4988339;28;20042;-59
2022/09/11 05:12:50;;;;;;;137.02;52.92;;;;;;;14.04;100.00;157965.09;4990747;28;20080;-59
2022/09/11 05:15:15;;;;;;;122.90;48.58;;;;;;;14.04;100.00;159729.50;4988936;28;20038;-59
2022/09/11 05:17:40;;;;;;;136.25;49.97;;;;;;;14.06;100.00;160900.38;4990445;28;20414;-59
2022/09/11 05:20:06;;;;;;;119.63;49.08;;;;;;;14.06;100.00;161488.84;4988859;28;20092;-59
2022/09/11 05:22:31;;;;;;;120.40;46.45;;;;;;;14.04;100.00;161069.94;4990827;28;20030;-59
2022/09/11 05:24:57;;;;;;;116.55;49.15;;;;;;;14.04;100.00;160678.56;4988311;28;20059;-59
2022/09/11 05:27:22;;;;;;;191.02;52.88;;;;;;;14.10;100.00;160355.88;4991287;28;20355;-59
2022/09/11 05:29:47;;;;;;;152.30;50.33;;;;;;;14.09;100.00;160775.09;4989084;28;20061;-59
2022/09/11 05:32:13;;;;;;;96.03;44.47;;;;;;;14.08;100.00;161068.00;4989244;28;20035;-59
2022/09/11 05:34:39;;;;;;;208.70;52.05;;;;;;;14.14;100.00;161876.63;4989884;28;20109;-59
2022/09/11 05:37:04;;;;;;;117.50;52.17;;;;;;;14.13;100.00;162898.66;4990415;28;20139;-59
2022/09/11 05:39:29;;;;;;;110.45;50.30;;;;;;;14.14;100.00;163441.63;4988647;28;20042;-59
2022/09/11 05:41:55;;;;;;;152.98;56.65;;;;;;;14.11;100.00;163269.59;4990664;28;20026;-59
2022/09/11 05:44:20;;;;;;;128.80;51.85;;;;;;;14.14;100.00;162679.16;4989150;28;20050;-59
2022/09/11 05:46:47;;;;;;;146.43;54.40;;;;;;;14.16;100.00;161348.88;4991409;28;20030;-59
2022/09/11 05:49:12;;;;;;;137.18;51.50;;;;;;;14.30;100.00;161266.75;4993125;28;20129;-59
2022/09/11 05:51:39;;;;;;;203.18;51.95;;;;;;;14.33;100.00;161802.41;4994632;28;20077;-59
2022/09/11 05:54:05;;;;;;;206.45;56.42;;;;;;;14.34;100.00;162052.25;4991439;28;20070;-59
2022/09/11 05:56:30;;;;;;;130.35;50.10;;;;;;;14.35;100.00;162220.16;4994342;28;20030;-59
2022/09/11 05:58:57;;;;;;;150.25;50.40;;;;;;;14.43;100.00;162576.34;4992507;28;20100;-59
2022/09/11 06:01:25;;;;;;;134.25;48.53;;;;;;;14.41;100.00;163335.06;4993956;28;20026;-60
2022/09/11 06:03:51;;;;;;;150.75;47.40;;;;;;;14.41;100.00;163518.47;4993080;28;20109;-61
2022/09/11 06:06:18;;;;;;;108.57;47.38;;;;;;;14.45;100.00;163595.97;4994556;28;20386;-61
2022/09/11 06:08:44;;;;;;;100.78;47.55;;;;;;;14.44;100.00;164010.16;4992102;28;20037;-62
2022/09/11 06:11:12;;;;;;;110.75;47.70;;;;;;;14.43;100.00;163528.03;4994466;28;20026;-62
2022/09/11 06:13:39;;;;;;;77.07;33.30;;;;;;;14.56;100.00;162740.41;4992766;28;20052;-63
2022/09/11 06:16:09;;;;;;;99.60;45.38;;;;;;;14.53;100.00;163233.97;4992638;28;20018;-63
2022/09/11 06:18:34;;;;;;;101.68;44.92;;;;;;;14.58;100.00;162847.16;4992997;28;20069;-63
2022/09/11 06:21:03;;;;;;;96.00;45.67;;;;;;;14.58;100.00;162840.28;4994051;28;20089;-63
2022/09/11 06:23:28;;;;;;;74.63;37.35;;;;;;;14.68;100.00;161553.97;4993548;28;20018;-64
2022/09/11 06:26:01;;;;;;;93.10;44.15;;;;;;;14.79;100.00;160088.19;4992085;28;20038;-63
2022/09/11 06:28:27;;;;;;;90.78;44.92;;;;;;;14.72;100.00;160296.13;4988268;28;20452;-63
2022/09/11 06:30:52;;;;;;;77.65;44.53;;;;;;;14.63;100.00;161207.22;4991373;28;20043;-63
2022/09/11 06:33:21;;;;;;;78.60;40.50;;;;;;;14.72;100.00;159664.19;4993823;28;20501;-63
2022/09/11 06:35:57;;;;;;;72.88;40.65;;;;;;;14.72;100.00;158539.34;4991846;28;20046;-64
2022/09/11 06:38:23;;;;;;;77.95;41.80;;;;;;;14.75;100.00;158227.84;4993324;28;20037;-61
2022/09/11 06:40:49;;;;;;;78.72;43.00;;;;;;;14.77;100.00;158371.91;4992543;28;20125;-58
2022/09/11 06:43:14;;;;;;;78.72;44.97;;;;;;;14.84;100.00;158967.88;4992850;28;20030;-59
2022/09/11 06:45:40;;;;;;;72.72;41.30;;;;;;;14.82;100.00;160954.72;4991796;28;20039;-59
2022/09/11 06:48:06;;;;;;;69.43;41.28;;;;;;;14.89;100.00;161676.50;4993725;28;20022;-59
2022/09/11 06:50:39;;;;;;;71.55;42.13;;;;;;;15.00;100.00;160870.41;4991307;28;20525;-59
2022/09/11 06:53:05;;;;;;;72.78;41.25;;;;;;;15.09;100.00;159525.25;4991546;28;20038;-59
2022/09/11 06:55:31;;;;;;;61.17;37.78;;;;;;;15.07;100.00;159754.78;4990853;28;20042;-59
2022/09/11 06:57:57;;;;;;;61.95;38.35;;;;;;;15.23;100.00;159324.38;4991482;28;20394;-59
2022/09/11 07:00:22;;;;;;;60.22;39.10;;;;;;;15.30;100.00;158917.38;4989822;28;20053;-59
2022/09/11 07:02:47;;;;;;;53.85;36.00;;;;;;;15.46;100.00;157673.44;4992811;28;20477;-59
2022/09/11 07:05:13;;;;;;;51.80;36.13;;;;;;;15.55;100.00;160288.59;4990723;28;20038;-59
2022/09/11 07:07:38;;;;;;;52.33;35.85;;;;;;;15.55;100.00;164343.72;4992742;28;20037;-59
2022/09/11 07:10:04;;;;;;;52.78;34.53;;;;;;;15.65;100.00;164657.69;4990515;28;20805;-59
2022/09/11 07:12:30;;;;;;;45.47;30.75;;;;;;;15.68;100.00;164665.78;4993194;28;20383;-59
2022/09/11 07:14:56;;;;;;;54.35;38.15;;;;;;;15.67;100.00;164664.47;4992207;28;20049;-59
2022/09/11 07:17:22;;;;;;;50.80;35.85;;;;;;;15.74;100.00;164682.06;4992276;28;20030;-59
2022/09/11 07:19:47;;;;;;;48.78;35.25;;;;;;;15.77;100.00;164690.16;4991526;28;20049;-58
2022/09/11 07:22:14;;;;;;;44.67;32.22;;;;;;;15.78;100.00;164692.88;4992975;28;20014;-59
2022/09/11 07:24:39;;;;;;;48.17;34.90;;;;;;;15.79;100.00;164695.59;4991690;28;20125;-59
2022/09/11 07:27:05;;;;;;;45.42;33.45;;;;;;;15.80;100.00;164698.31;4992998;28;20544;-59
2022/09/11 07:29:30;;;;;;;45.30;33.45;;;;;;;15.84;100.00;164709.19;4991575;28;20063;-59
2022/09/11 07:31:57;;;;;;;45.17;34.40;;;;;;;15.89;100.00;164721.38;4992761;28;20034;-59
2022/09/11 07:34:22;;;;;;;44.05;33.67;;;;;;;16.01;100.00;164752.53;4991903;28;20057;-59
2022/09/11 07:36:50;;;;;;;43.75;32.47;;;;;;;16.08;100.00;164770.16;4989789;28;20014;-59
2022/09/11 07:39:16;;;;;;;44.42;34.83;;;;;;;16.07;100.00;164767.44;5005702;28;20038;-59
2022/09/11 07:41:41;;;;;;;44.03;30.33;;;;;;;16.11;100.00;164779.63;4994812;28;20033;-59
2022/09/11 07:44:07;;;;;;;41.88;34.65;;;;;;;16.14;100.00;164787.72;4996224;28;20109;-59
2022/09/11 07:46:32;;;;;;;51.63;35.38;;;;;;;16.31;100.00;164831.06;4999028;28;20030;-59
2022/09/11 07:49:00;;;;;;;43.55;33.22;;;;;;;16.42;100.00;164859.50;4991491;28;20065;-59
2022/09/11 07:51:26;;;;;;;38.45;33.53;;;;;;;16.49;100.00;164879.81;4991957;28;20026;-59
2022/09/11 07:53:53;;;;;;;38.63;31.00;;;;;;;16.50;100.00;164882.53;4991359;28;20034;-59
2022/09/11 07:56:23;;;;;;;40.15;34.15;;;;;;;16.65;100.00;164920.44;4993218;28;20101;-59
2022/09/11 07:58:51;;;;;;;39.10;33.58;;;;;;;16.68;100.00;164928.59;4991379;28;20030;-59
2022/09/11 08:01:19;;;;;;;37.80;30.25;;;;;;;16.70;100.00;164934.03;4993245;28;20034;-60
2022/09/11 08:03:45;;;;;;;37.97;30.85;;;;;;;16.84;100.00;164970.56;4991538;28;20022;-59
2022/09/11 08:06:16;;;;;;;34.60;30.85;;;;;;;16.87;100.00;164977.34;4992295;28;20062;-59
2022/09/11 08:08:42;;;;;;;39.15;31.50;;;;;;;16.91;100.00;164988.22;4991458;28;20654;-59
2022/09/11 08:11:13;;;;;;;39.92;31.33;;;;;;;17.03;100.00;165020.75;4991444;28;20026;-59
2022/09/11 08:13:39;;;;;;;36.38;31.15;;;;;;;17.15;100.00;165050.59;4990829;28;20026;-59
2022/09/11 08:16:05;;;;;;;40.38;32.90;;;;;;;17.24;100.00;165076.34;4992364;28;20045;-59
2022/09/11 08:18:31;;;;;;;37.78;31.55;;;;;;;17.26;100.00;165080.38;4991317;28;20663;-59
2022/09/11 08:21:05;;;;;;;33.33;28.67;;;;;;;17.47;100.00;165134.59;4991902;28;20022;-59
2022/09/11 08:23:31;;;;;;;31.85;28.42;;;;;;;17.56;100.00;165159.00;4991062;28;20565;-59
2022/09/11 08:26:08;;;;;;;39.00;29.98;;;;;;;17.73;100.00;165205.09;4992207;28;20026;-59
2022/09/11 08:28:34;;;;;;;38.20;32.67;;;;;;;17.94;100.00;165257.97;4990567;28;20027;-59
2022/09/11 08:31:03;;;;;;;35.97;30.05;;;;;;;18.05;100.00;165289.22;4991977;28;20042;-59
2022/09/11 08:33:29;;;;;;;38.22;33.53;;;;;;;18.15;100.00;165313.56;4992474;28;20057;-59
2022/09/11 08:35:57;;;;;;;32.90;27.55;;;;;;;18.20;100.00;165327.16;4990064;28;20034;-59
2022/09/11 08:38:23;;;;;;;35.83;31.33;;;;;;;18.36;100.00;165370.50;4992249;28;20112;-59
2022/09/11 08:40:49;;;;;;;31.75;28.33;;;;;;;18.58;100.00;165426.13;4990675;28;20830;-59
2022/09/11 08:43:22;;;;;;;36.20;30.13;;;;;;;18.65;100.00;165446.44;4991601;28;20018;-60
2022/09/11 08:45:50;;;;;;;27.08;24.17;;;;;;;18.82;100.00;165489.84;4990659;28;20057;-60
2022/09/11 08:48:20;;;;;;;31.65;27.67;;;;;;;18.75;100.00;165470.88;4991856;28;20022;-60
2022/09/11 08:50:48;;;;;;;33.97;29.67;;;;;;;18.99;100.00;165536.03;4990002;28;20043;-59
2022/09/11 08:53:17;;;;;;;31.90;26.98;;;;;;;18.94;100.00;165521.09;4992006;28;20029;-59
2022/09/11 08:55:51;;;;;;;27.25;22.48;;;;;;;18.95;100.00;165525.16;4990524;28;20065;-60
2022/09/11 08:58:49;;;;;;;30.83;26.02;;;;;;;18.86;100.00;165500.72;4991796;28;20112;-60
2022/09/11 09:01:46;;;;;;;30.23;26.75;;;;;;;18.92;100.00;165515.66;4990338;28;20038;-59
2022/09/11 09:04:29;;;;;;;32.63;26.00;;;;;;;18.96;100.00;165527.88;4989964;28;20076;-59
2022/09/11 09:07:00;;;;;;;28.52;25.10;;;;;;;18.85;100.00;165498.00;4991562;28;20033;-59
2022/09/11 09:09:49;;;;;;;27.00;23.13;;;;;;;18.86;100.00;165500.72;4990150;28;20042;-59
2022/09/11 09:12:22;;;;;;;26.10;23.20;;;;;;;18.70;100.00;165458.66;4990983;28;20355;-59
2022/09/11 09:15:18;;;;;;;26.02;23.10;;;;;;;18.58;100.00;165427.47;4990300;28;20035;-59
2022/09/11 09:18:09;;;;;;;26.67;23.95;;;;;;;18.55;100.00;165419.34;4991044;28;20041;-59
2022/09/11 09:20:43;;;;;;;32.50;26.70;;;;;;;18.54;100.00;165416.63;4982004;28;20046;-59
2022/09/11 09:23:17;;;;;;;28.15;25.33;;;;;;;18.54;100.00;165416.63;4991191;28;20030;-60
2022/09/11 09:25:43;;;;;;;27.73;24.70;;;;;;;18.60;100.00;165432.91;5007761;28;20541;-60
2022/09/11 09:28:33;;;;;;;30.77;22.15;;;;;;;18.74;100.00;165469.53;4993938;28;20029;-59
2022/09/11 09:31:06;;;;;;;24.52;21.92;;;;;;;18.89;100.00;165508.84;5009093;28;20058;-59
2022/09/11 09:33:37;;;;;;;27.63;21.70;;;;;;;19.12;100.00;165568.59;4994800;28;20054;-60
2022/09/11 09:36:20;;;;;;;31.05;21.85;;;;;;;19.25;100.00;165602.50;4990431;28;20043;-59
2022/09/11 09:38:45;;;;;;;25.77;21.95;;;;;;;19.52;100.00;165673.03;4991129;28;20041;-60
2022/09/11 09:41:42;;;;;;;23.42;20.92;;;;;;;19.36;100.00;165631.00;4989178;28;20042;-59
2022/09/11 09:44:22;;;;;;;23.83;21.42;;;;;;;19.25;100.00;165603.84;4991045;28;20125;-60
2022/09/11 09:46:51;;;;;;;22.60;20.40;;;;;;;19.35;100.00;165629.66;4969294;28;20081;-61
2022/09/11 09:49:31;;;;;;;22.75;19.55;;;;;;;19.38;100.00;165636.44;4970586;28;20074;-60
2022/09/11 09:51:59;;;;;;;18.48;16.50;;;;;;;19.12;100.00;165568.59;4986673;28;20137;-60
2022/09/11 09:54:28;;;;;;;;;;;;;;;19.17;100.00;165582.19;4988687;28;20064;-60
2022/09/11 09:57:14;;;;;;;16.08;14.38;;;;;;;18.90;100.00;165510.22;4988953;28;19906;-60
2022/09/11 09:59:45;;;;;;;24.05;14.82;;;;;;;18.90;100.00;165510.22;4991574;28;20029;-60
2022/09/11 10:02:11;;;;;;;17.73;15.88;;;;;;;18.98;100.00;165533.31;5010312;28;20179;-60
2022/09/11 10:04:36;;;;;;;24.75;17.73;;;;;;;19.18;100.00;165584.84;5008873;28;20022;-60
2022/09/11 10:07:13;;;;;;;21.02;15.55;;;;;;;19.74;100.00;165731.41;5010226;28;20037;-60
2022/09/11 10:09:47;;;;;;;14.20;12.75;;;;;;;20.42;100.00;165910.63;5009215;28;20034;-60
2022/09/11 10:12:25;;;;;;;20.25;13.32;;;;;;;21.21;100.00;166119.75;5010215;28;20026;-59
2022/09/11 10:15:01;;;;;;;13.40;11.50;;;;;;;21.89;100.00;166297.75;5009343;28;20037;-59
2022/09/11 10:17:28;;;;;;;11.88;10.30;;;;;;;22.13;100.00;166361.59;5009783;28;20022;-59
2022/09/11 10:19:55;;;;;;;14.20;11.82;;;;;;;22.27;100.00;166398.22;5008994;28;20041;-59
2022/09/11 10:22:29;;;;;;;11.57;10.55;;;;;;;22.43;100.00;166440.44;4990891;28;20034;-59
2022/09/11 10:25:10;;;;;;;18.30;12.45;;;;;;;22.62;100.00;166489.34;4989020;28;20121;-59
2022/09/11 10:27:44;;;;;;;12.18;10.32;;;;;;;22.73;100.00;166519.25;4991010;28;20058;-59
2022/09/11 10:30:42;;;;;;;14.27;10.73;;;;;;;22.77;100.00;166530.13;4988378;28;20059;-59
2022/09/11 10:33:19;;;;;;;;;;;;;;;22.69;100.00;166508.34;4991149;28;20038;-59
2022/09/11 10:35:55;;;;;;;12.23;10.13;;;;;;;22.56;100.00;166473.03;4993052;28;19989;-59
2022/09/11 10:38:27;;;;;;;12.88;11.10;;;;;;;22.55;100.00;166470.31;4994779;28;20018;-59
2022/09/11 10:41:13;;;;;;;13.30;10.45;;;;;;;22.33;100.00;166413.19;4992661;28;20045;-59
2022/09/11 10:43:41;;;;;;;12.00;9.40;;;;;;;21.73;100.00;166255.59;4992801;28;20490;-58
2022/09/11 10:46:27;;;;;;;23.08;14.52;;;;;;;21.32;100.00;166146.91;4993604;28;20057;-59
2022/09/11 10:49:03;;;;;;;12.90;11.38;;;;;;;20.89;100.00;166035.53;4973153;28;20405;-59
2022/09/11 10:51:32;;;;;;;13.52;11.70;;;;;;;20.67;100.00;165975.75;4978176;28;20038;-59
2022/09/11 10:54:00;;;;;;;;;;;;;;;20.65;100.00;165970.34;4993122;28;20530;-59
2022/09/11 10:56:26;;;;;;;;;;;;;;;20.39;100.00;165902.44;4994456;28;20393;-59
2022/09/11 10:58:59;;;;;;;10.60;8.93;;;;;;;20.11;100.00;165829.16;4992517;28;19913;-59
2022/09/11 11:01:25;;;;;;;12.57;11.27;;;;;;;19.95;100.00;165788.44;4994066;28;20432;-59
2022/09/11 11:03:51;;;;;;;11.68;10.57;;;;;;;19.95;100.00;165787.09;4992321;28;20057;-59
2022/09/11 11:06:44;;;;;;;10.95;9.95;;;;;;;19.88;100.00;165769.44;4993784;28;20022;-59
2022/09/11 11:09:24;;;;;;;10.50;9.00;;;;;;;20.02;100.00;165804.72;4992007;28;20042;-60
2022/09/11 11:12:16;;;;;;;11.77;10.23;;;;;;;20.21;100.00;165856.31;4994402;28;20382;-59
2022/09/11 11:14:59;;;;;;;14.82;11.63;;;;;;;20.29;100.00;165878.00;4992862;28;20061;-59